Time;durP1;ratioP1;P1;durP2;ratioP2;P2;SDS_P1;SDS_P2;PMS_P1;PMS_P2;Temp;Humidity;BMP_temperature;BMP_pressure;BME280_temperature;BME280_humidity;BME280_pressure;Samples;Min_cycle;Max_cycle;Signal;HPM_P1;HPM_P2
2021/10/01 00:02:08;;;;;;;3.23;2.27;;;;;;;12.92;63.81;96405.78;5032294;28;20210;-87
2021/10/01 00:04:34;;;;;;;2.77;2.20;;;;;;;12.86;64.17;96402.13;5032585;28;20202;-90
2021/10/01 00:07:01;;;;;;;2.00;1.80;;;;;;;12.83;63.84;96406.84;5035366;28;20205;-87
2021/10/01 00:09:27;;;;;;;3.10;2.20;;;;;;;12.85;63.86;96402.31;5052337;28;20237;-87
2021/10/01 00:11:54;;;;;;;2.80;1.83;;;;;;;12.77;64.14;96406.53;5052476;28;20259;-86
2021/10/01 00:14:23;;;;;;;1.97;1.87;;;;;;;12.62;64.93;96404.84;5052340;28;20271;-90
2021/10/01 00:16:53;;;;;;;3.70;2.10;;;;;;;12.48;65.07;96395.22;5052773;28;20205;-86
2021/10/01 00:19:22;;;;;;;3.37;2.33;;;;;;;12.37;65.55;96404.94;5047750;28;20852;-86
2021/10/01 00:21:49;;;;;;;3.07;2.00;;;;;;;12.44;65.15;96394.75;5032683;28;20201;-88
2021/10/01 00:24:15;;;;;;;3.87;2.17;;;;;;;12.54;64.98;96399.69;5032136;28;20268;-87
2021/10/01 00:26:42;;;;;;;2.87;2.20;;;;;;;12.43;65.45;96395.72;5032246;28;20201;-88
2021/10/01 00:29:10;;;;;;;2.40;2.00;;;;;;;12.35;66.18;96393.97;5031871;28;20225;-87
2021/10/01 00:31:36;;;;;;;2.27;1.90;;;;;;;12.35;66.08;96391.38;5032134;28;20218;-88
2021/10/01 00:34:04;;;;;;;3.83;2.03;;;;;;;12.36;65.77;96389.59;5033979;28;20229;-87
2021/10/01 00:36:31;;;;;;;3.60;2.20;;;;;;;12.26;66.73;96383.84;5071590;28;20201;-86
2021/10/01 00:38:59;;;;;;;2.60;2.40;;;;;;;12.22;66.90;96374.81;5071649;28;20221;-87
2021/10/01 00:41:25;;;;;;;2.83;1.90;;;;;;;12.18;67.01;96374.34;5071695;28;20196;-87
2021/10/01 00:43:52;;;;;;;2.57;2.00;;;;;;;12.18;67.11;96369.19;5071730;28;20208;-87
2021/10/01 00:46:18;;;;;;;2.80;2.07;;;;;;;12.17;67.30;96371.91;5071906;28;20209;-86
2021/10/01 00:48:45;;;;;;;3.13;2.10;;;;;;;12.24;66.75;96370.28;5071648;28;20220;-88
2021/10/01 00:51:12;;;;;;;2.73;2.30;;;;;;;12.34;66.23;96373.47;5051855;28;20209;-86
2021/10/01 00:53:40;;;;;;;2.47;2.10;;;;;;;12.41;66.70;96366.66;5051767;28;20271;-88
2021/10/01 00:56:07;;;;;;;2.90;2.40;;;;;;;12.44;65.95;96363.75;5051424;28;20712;-87
2021/10/01 00:58:33;;;;;;;2.60;2.40;;;;;;;12.51;65.83;96361.31;5051561;28;20296;-87
2021/10/01 01:01:09;;;;;;;2.83;2.27;;;;;;;12.56;65.66;96359.81;5051903;28;20604;-89
2021/10/01 01:03:38;;;;;;;3.07;2.20;;;;;;;12.59;65.83;96359.47;5052104;28;20665;-87
2021/10/01 01:06:11;;;;;;;2.50;2.30;;;;;;;12.61;65.92;96357.53;5051081;28;20201;-86
2021/10/01 01:08:46;;;;;;;3.47;2.27;;;;;;;12.62;65.54;96360.91;5051652;28;20236;-86
2021/10/01 01:11:23;;;;;;;3.37;2.10;;;;;;;12.68;64.83;96357.66;5051714;28;20719;-86
2021/10/01 01:13:57;;;;;;;2.23;1.93;;;;;;;12.59;64.91;96353.50;5051259;28;20228;-87
2021/10/01 01:16:30;;;;;;;2.27;2.07;;;;;;;12.52;65.06;96352.56;5051582;28;20216;-88
2021/10/01 01:18:59;;;;;;;2.43;2.10;;;;;;;12.39;65.35;96353.91;5052793;28;20688;-87
2021/10/01 01:21:43;;;;;;;2.50;2.10;;;;;;;12.22;66.11;96354.16;5071098;28;20201;-86
2021/10/01 01:24:32;;;;;;;1.90;1.70;;;;;;;12.27;65.98;96346.72;5070397;28;20283;-86
2021/10/01 01:27:10;;;;;;;4.43;2.00;;;;;;;12.26;65.56;96342.53;5070875;28;20222;-87
2021/10/01 01:29:44;;;;;;;3.10;1.90;;;;;;;12.27;65.18;96341.56;5054027;28;20232;-87
2021/10/01 01:32:18;;;;;;;3.73;1.80;;;;;;;12.30;65.45;96346.38;5051248;28;20228;-87
2021/10/01 01:34:50;;;;;;;2.37;1.87;;;;;;;12.18;65.72;96337.38;5056735;28;20224;-87
2021/10/01 01:37:28;;;;;;;2.20;2.00;;;;;;;12.09;66.11;96341.78;5070453;28;20231;-88
2021/10/01 01:39:57;;;;;;;2.60;2.00;;;;;;;11.99;66.53;96336.00;5070684;28;20239;-87
2021/10/01 01:42:25;;;;;;;2.07;1.90;;;;;;;11.83;67.19;96331.69;5071126;28;20683;-87
2021/10/01 01:44:53;;;;;;;2.33;2.00;;;;;;;11.81;66.72;96325.09;5070298;28;20193;-87
2021/10/01 01:47:21;;;;;;;3.03;2.23;;;;;;;11.83;67.19;96323.16;5070830;28;20205;-86
2021/10/01 01:49:49;;;;;;;3.00;2.10;;;;;;;11.81;67.15;96322.50;5062504;28;20272;-86
2021/10/01 01:52:16;;;;;;;2.23;2.03;;;;;;;11.79;67.09;96314.13;5050037;28;20201;-86
2021/10/01 01:54:45;;;;;;;2.93;2.10;;;;;;;11.84;66.97;96309.28;5049879;28;20225;-87
2021/10/01 01:57:12;;;;;;;3.30;2.10;;;;;;;11.77;67.42;96309.13;5050726;28;20197;-87
2021/10/01 01:59:40;;;;;;;4.07;2.17;;;;;;;11.77;66.79;96315.09;5050544;28;20233;-87
2021/10/01 02:02:07;;;;;;;2.20;2.00;;;;;;;11.67;66.93;96309.31;5050655;28;20202;-86
2021/10/01 02:04:35;;;;;;;2.37;1.87;;;;;;;11.67;67.37;96313.66;5049998;28;20205;-86
2021/10/01 02:07:03;;;;;;;2.90;2.13;;;;;;;11.66;67.67;96304.31;5050487;28;20209;-86
2021/10/01 02:09:31;;;;;;;3.00;1.90;;;;;;;11.72;67.32;96306.25;5050713;28;20229;-87
2021/10/01 02:11:58;;;;;;;3.03;2.10;;;;;;;11.72;67.35;96304.47;5050730;28;20229;-86
2021/10/01 02:14:28;;;;;;;1.87;1.70;;;;;;;11.72;66.98;96301.88;5050459;28;20630;-88
2021/10/01 02:16:57;;;;;;;2.13;1.93;;;;;;;11.61;67.02;96291.91;5050818;28;20205;-86
2021/10/01 02:19:27;;;;;;;2.60;1.97;;;;;;;11.58;67.20;96288.84;5044633;28;20708;-90
2021/10/01 02:21:55;;;;;;;3.33;1.93;;;;;;;11.55;66.96;96281.44;5030410;28;20202;-87
2021/10/01 02:24:27;;;;;;;2.33;2.00;;;;;;;11.51;67.55;96285.34;5030249;28;20202;-86
2021/10/01 02:27:01;;;;;;;2.20;1.93;;;;;;;11.55;67.56;96284.81;5030974;28;20568;-87
2021/10/01 02:29:31;;;;;;;1.93;1.77;;;;;;;11.58;67.14;96287.06;5052139;28;20626;-88
2021/10/01 02:32:04;;;;;;;2.70;1.90;;;;;;;11.65;67.08;96280.28;5055995;28;20197;-89
2021/10/01 02:34:36;;;;;;;2.03;1.83;;;;;;;11.67;66.84;96290.44;5048035;28;20218;-88
2021/10/01 02:37:07;;;;;;;2.37;1.80;;;;;;;11.63;67.61;96284.81;5029578;28;20226;-86
2021/10/01 02:39:34;;;;;;;2.30;2.00;;;;;;;11.59;67.85;96278.38;5030500;28;20241;-87
2021/10/01 02:42:01;;;;;;;3.90;2.10;;;;;;;11.45;67.78;96273.88;5030345;28;20217;-87
2021/10/01 02:44:27;;;;;;;1.97;1.60;;;;;;;11.52;67.95;96281.78;5032659;28;20206;-88
2021/10/01 03:07:55;;;;;;;2.33;2.10;;;;;;;11.53;69.09;96260.19;4866121;29;20210;-86
2021/10/01 05:00:36;;;;;;;3.43;1.97;;;;;;;11.05;68.55;96198.25;5039683;28;20284;-87
2021/10/01 05:03:30;;;;;;;2.53;1.90;;;;;;;11.05;68.83;96194.88;5073017;28;20200;-86
2021/10/01 05:06:12;;;;;;;2.17;1.97;;;;;;;11.07;68.63;96198.09;5071979;28;20632;-85
2021/10/01 05:08:55;;;;;;;4.23;2.20;;;;;;;11.16;68.17;96201.47;5071363;28;20775;-84
2021/10/01 05:11:57;;;;;;;2.47;2.10;;;;;;;11.20;68.22;96198.38;5073171;28;20218;-85
2021/10/01 06:22:40;;;;;;;;;;;;;;;;;;;;;
2021/10/01 09:36:31;;;;;;;;;;;;;;;;;;;;;
2021/10/01 09:42:10;;;;;;;3.60;2.20;;;;;;;20.25;47.54;96123.16;5054430;28;20722;-83
2021/10/01 09:44:53;;;;;;;6.00;2.70;;;;;;;20.07;47.26;96120.59;5069106;28;20197;-83
2021/10/01 09:47:32;;;;;;;2.60;2.40;;;;;;;20.06;46.89;96119.00;5053993;28;20201;-83
2021/10/01 09:50:09;;;;;;;3.08;2.10;;;;;;;19.95;46.95;96110.09;5050786;28;20296;-83
2021/10/01 09:56:26;;;;;;;8.55;2.65;;;;;;;19.97;47.29;96097.63;5337223;22;20209;-81
2021/10/01 10:13:15;;;;;;;2.58;1.95;;;;;;;19.56;47.73;96073.03;5214762;22;20229;-81
2021/10/01 10:16:05;;;;;;;2.42;2.00;;;;;;;19.56;46.43;96072.22;5043447;28;20259;-81
2021/10/01 10:18:33;;;;;;;5.22;1.80;;;;;;;19.58;46.48;96075.44;5055279;28;20280;-81
2021/10/01 10:21:03;;;;;;;2.97;1.60;;;;;;;19.40;44.90;96068.38;5039213;28;20206;-82
2021/10/01 10:23:34;;;;;;;2.75;1.65;;;;;;;19.49;46.09;96069.66;5050149;28;20638;-82
2021/10/01 10:26:05;;;;;;;3.90;1.58;;;;;;;19.53;45.95;96083.13;5054702;28;20217;-82
2021/10/01 10:28:44;;;;;;;2.88;1.50;;;;;;;19.62;46.80;96066.13;5055389;28;20201;-82
2021/10/01 10:37:45;;;;;;;8.32;7.18;;;;;;;19.84;45.52;96063.81;5016073;28;20691;-83
2021/10/01 10:40:19;;;;;;;1.80;1.60;;;;;;;19.74;44.94;96064.34;5067132;28;20266;-83
2021/10/01 10:43:07;;;;;;;4.20;1.55;;;;;;;19.73;44.52;96057.53;5073237;28;20675;-84
2021/10/01 10:45:53;;;;;;;2.22;1.40;;;;;;;19.64;44.82;96059.63;5072787;28;20220;-86
2021/10/01 10:48:19;;;;;;;2.13;1.40;;;;;;;19.69;46.66;96047.72;5076040;28;20205;-86
2021/10/01 10:50:50;;;;;;;1.95;1.30;;;;;;;19.70;46.29;96052.75;5056625;28;20198;-87
2021/10/01 10:53:20;;;;;;;3.60;1.48;;;;;;;19.77;46.76;96048.22;5056188;28;20227;-84
2021/10/01 10:56:01;;;;;;;1.40;1.15;;;;;;;19.94;45.15;96045.78;5055778;28;20235;-85
2021/10/01 10:58:42;;;;;;;2.40;1.35;;;;;;;20.09;45.02;96042.75;5066092;28;20204;-84
2021/10/01 11:01:39;;;;;;;1.85;1.10;;;;;;;20.13;45.09;96029.00;5075281;28;20208;-85
2021/10/01 11:04:39;;;;;;;1.75;1.17;;;;;;;20.14;44.21;96032.41;5074918;28;20200;-85
2021/10/01 11:07:07;;;;;;;1.92;1.17;;;;;;;20.16;43.64;96035.59;5077356;28;20307;-83
2021/10/01 11:09:34;;;;;;;1.20;1.10;;;;;;;20.19;44.36;96024.69;5072637;28;20219;-85
2021/10/01 11:12:03;;;;;;;2.33;1.20;;;;;;;20.23;43.87;96024.00;5059783;28;20217;-84
2021/10/01 11:14:33;;;;;;;3.08;1.27;;;;;;;20.27;44.62;96021.72;5058864;28;20410;-84
2021/10/01 11:17:19;;;;;;;1.20;1.10;;;;;;;20.12;43.80;96014.31;5059575;28;20221;-85
2021/10/01 11:19:49;;;;;;;2.30;1.23;;;;;;;19.99;44.08;96009.31;5069402;28;20839;-85
2021/10/01 11:22:36;;;;;;;2.83;1.20;;;;;;;19.93;44.12;96016.22;5058944;28;20209;-85
2021/10/01 11:25:11;;;;;;;1.55;1.35;;;;;;;20.05;45.40;96003.16;5058500;28;20730;-85
2021/10/01 11:27:47;;;;;;;2.17;1.30;;;;;;;20.09;45.20;96004.31;5059212;28;20205;-83
2021/10/01 11:30:14;;;;;;;1.25;1.00;;;;;;;20.11;44.75;95997.03;5060407;28;20663;-85
2021/10/01 11:32:41;;;;;;;1.92;1.10;;;;;;;20.08;44.27;96000.09;5059799;28;20213;-85
2021/10/01 11:35:08;;;;;;;2.40;2.15;;;;;;;20.04;43.40;95993.72;5059855;28;20692;-85
2021/10/01 11:37:37;;;;;;;3.65;1.77;;;;;;;20.00;44.29;95996.03;5073391;28;20227;-84
2021/10/01 11:40:06;;;;;;;2.53;1.40;;;;;;;20.15;44.82;95987.75;5069270;28;20224;-84
2021/10/01 11:42:36;;;;;;;1.08;1.00;;;;;;;20.22;44.78;95979.75;5069961;28;20706;-83
2021/10/01 11:45:09;;;;;;;1.50;1.00;;;;;;;20.41;45.27;95985.72;5057340;28;20267;-85
2021/10/01 11:47:36;;;;;;;2.10;1.20;;;;;;;20.58;44.05;95974.34;5059163;28;20216;-84
2021/10/01 11:50:06;;;;;;;2.22;1.20;;;;;;;20.58;43.19;95976.16;5057518;28;20568;-84
2021/10/01 11:52:42;;;;;;;1.40;1.00;;;;;;;20.59;43.05;95968.06;5057988;28;20587;-84
2021/10/01 11:55:09;;;;;;;1.52;1.20;;;;;;;20.56;43.24;95959.91;5057212;28;20224;-83
2021/10/01 11:57:36;;;;;;;1.55;0.90;;;;;;;20.64;43.76;95957.72;5058857;28;20216;-84
2021/10/01 12:00:06;;;;;;;2.00;1.80;;;;;;;20.88;44.49;95949.81;5057610;28;20668;-84
2021/10/01 12:02:34;;;;;;;3.97;2.00;;;;;;;20.94;42.44;95952.31;5058980;28;20197;-85
2021/10/01 12:05:30;;;;;;;1.30;1.10;;;;;;;20.91;41.49;95951.97;5058693;28;20201;-84
2021/10/01 12:07:58;;;;;;;1.75;0.98;;;;;;;20.92;42.43;95945.72;5058408;28;20579;-84
2021/10/01 12:10:27;;;;;;;1.65;1.08;;;;;;;20.97;41.40;95941.34;5059528;28;20197;-85
2021/10/01 12:13:10;;;;;;;1.60;0.95;;;;;;;21.15;42.11;95937.78;5058092;28;20213;-83
2021/10/01 12:15:42;;;;;;;1.02;0.93;;;;;;;21.34;42.38;95930.56;5058472;28;20236;-85
2021/10/01 12:18:29;;;;;;;0.90;0.90;;;;;;;21.50;40.61;95929.00;5057781;28;20689;-85
2021/10/01 12:20:59;;;;;;;2.15;1.02;;;;;;;21.63;40.58;95924.22;5075225;28;20232;-84
2021/10/01 12:23:28;;;;;;;1.30;1.00;;;;;;;21.61;39.99;95909.78;5076755;28;20864;-84
2021/10/01 12:25:55;;;;;;;1.70;1.10;;;;;;;21.64;39.23;95919.78;5077906;28;20220;-84
2021/10/01 12:28:23;;;;;;;3.38;0.90;;;;;;;21.59;39.44;95915.25;5077672;28;20205;-84
2021/10/01 12:31:01;;;;;;;1.83;1.08;;;;;;;21.60;39.35;95905.56;5077866;28;20201;-85
2021/10/01 12:33:28;;;;;;;1.05;0.90;;;;;;;21.51;40.76;95909.63;5078201;28;20199;-81
2021/10/01 12:35:54;;;;;;;1.20;1.10;;;;;;;21.47;40.92;95904.06;5079947;28;20278;-82
2021/10/01 12:38:23;;;;;;;3.28;1.00;;;;;;;21.49;40.46;95902.00;5078533;28;20239;-83
2021/10/01 12:41:08;;;;;;;2.72;0.98;;;;;;;21.62;40.86;95898.25;5077926;28;20207;-87
2021/10/01 12:43:43;;;;;;;1.63;0.98;;;;;;;21.75;40.80;95890.06;5076378;28;20280;-84
2021/10/01 12:46:09;;;;;;;2.13;1.00;;;;;;;21.76;40.92;95886.41;5077026;28;20216;-85
2021/10/01 12:48:36;;;;;;;1.15;0.93;;;;;;;21.84;41.02;95880.78;5076353;28;20291;-84
2021/10/01 12:51:03;;;;;;;1.08;0.80;;;;;;;21.94;40.88;95885.38;5058546;28;20201;-84
2021/10/01 12:53:32;;;;;;;2.13;0.98;;;;;;;21.96;41.08;95878.06;5057841;28;20863;-85
2021/10/01 12:56:14;;;;;;;1.15;1.00;;;;;;;22.02;41.10;95871.91;5057080;28;20264;-85
2021/10/01 12:58:43;;;;;;;1.58;1.10;;;;;;;22.16;41.16;95877.59;5067261;28;20219;-84
2021/10/01 13:01:17;;;;;;;7.20;5.90;;;;;;;22.17;40.04;95873.94;5076676;28;20700;-85
2021/10/01 13:03:46;;;;;;;1.08;1.00;;;;;;;22.19;39.45;95870.03;5074899;28;20204;-85
2021/10/01 13:06:28;;;;;;;1.10;1.00;;;;;;;22.28;39.93;95868.59;5055703;28;20213;-85
2021/10/01 13:08:56;;;;;;;1.73;1.10;;;;;;;22.40;40.40;95864.00;5069218;28;20284;-85
2021/10/01 13:11:23;;;;;;;2.55;1.00;;;;;;;22.43;39.61;95862.75;5062172;28;20204;-85
2021/10/01 13:13:50;;;;;;;1.65;1.10;;;;;;;22.46;40.06;95858.84;5070213;28;20251;-84
2021/10/01 13:16:26;;;;;;;1.20;0.90;;;;;;;22.49;39.75;95859.16;5055133;28;20259;-84
2021/10/01 13:19:03;;;;;;;0.90;0.90;;;;;;;22.44;40.07;95855.66;5065103;28;20204;-85
2021/10/01 13:21:29;;;;;;;1.20;1.00;;;;;;;22.35;39.36;95850.03;5061153;28;20585;-86
2021/10/01 13:24:13;;;;;;;1.30;1.20;;;;;;;22.33;40.35;95850.28;5065915;28;20213;-85
2021/10/01 13:26:42;;;;;;;0.90;0.90;;;;;;;22.31;40.36;95843.69;5065204;28;20217;-82
2021/10/01 13:29:11;;;;;;;1.67;1.08;;;;;;;22.39;40.20;95840.63;5068466;28;20197;-84
2021/10/01 13:31:41;;;;;;;1.20;0.98;;;;;;;22.45;40.50;95847.53;5065321;28;20284;-85
2021/10/01 13:34:09;;;;;;;5.80;1.90;;;;;;;22.47;39.96;95836.81;5054283;28;20236;-84
2021/10/01 13:36:38;;;;;;;1.55;1.10;;;;;;;22.51;40.66;95840.53;5063166;28;20699;-84
2021/10/01 13:39:09;;;;;;;3.03;1.13;;;;;;;22.48;39.58;95838.41;5066897;28;20668;-84
2021/10/01 13:41:40;;;;;;;1.65;1.00;;;;;;;22.48;40.06;95838.41;5060919;28;20201;-85
2021/10/01 13:44:07;;;;;;;1.20;1.10;;;;;;;22.62;40.49;95836.97;5073412;28;20208;-84
2021/10/01 13:46:34;;;;;;;1.90;0.95;;;;;;;22.66;40.52;95831.00;5063250;28;20214;-84
2021/10/01 13:49:01;;;;;;;1.67;1.00;;;;;;;22.69;41.55;95830.50;5061935;28;20257;-84
2021/10/01 13:51:32;;;;;;;1.90;1.33;;;;;;;22.79;40.14;95821.97;5072076;28;20201;-84
2021/10/01 13:53:58;;;;;;;1.88;1.05;;;;;;;22.81;39.73;95821.72;5069095;28;20215;-84
2021/10/01 13:56:25;;;;;;;0.90;0.90;;;;;;;22.88;39.89;95817.88;5057378;28;20288;-86
2021/10/01 13:58:53;;;;;;;1.67;1.10;;;;;;;22.99;40.02;95811.66;5063213;28;20201;-83
2021/10/01 14:01:20;;;;;;;1.80;1.35;;;;;;;23.07;40.09;95813.03;5064083;28;20201;-84
2021/10/01 14:03:46;;;;;;;2.22;0.95;;;;;;;23.11;39.79;95818.56;5055640;28;20209;-84
2021/10/01 14:06:13;;;;;;;0.98;0.98;;;;;;;23.15;39.71;95804.69;5053768;28;20250;-85
2021/10/01 14:08:40;;;;;;;2.55;0.90;;;;;;;23.21;39.36;95808.16;5062303;28;20536;-85
2021/10/01 14:11:07;;;;;;;1.13;1.02;;;;;;;23.27;39.75;95810.59;5068729;28;20730;-84
2021/10/01 14:13:33;;;;;;;0.98;0.98;;;;;;;23.23;39.58;95804.25;5057049;28;20580;-84
2021/10/01 14:16:01;;;;;;;1.42;1.10;;;;;;;23.23;39.61;95798.19;5053780;28;20225;-84
2021/10/01 14:18:29;;;;;;;2.85;1.00;;;;;;;23.26;40.22;95795.88;5053370;28;20194;-84
2021/10/01 14:20:58;;;;;;;1.77;1.00;;;;;;;23.32;40.86;95797.47;5071634;28;20211;-85
2021/10/01 14:23:25;;;;;;;1.92;1.10;;;;;;;23.40;40.36;95794.41;5073861;28;20272;-85
2021/10/01 14:25:52;;;;;;;1.85;1.73;;;;;;;23.37;39.77;95796.72;5073473;28;20225;-85
2021/10/01 14:28:18;;;;;;;2.58;1.33;;;;;;;23.40;38.93;95793.59;5074095;28;20193;-83
2021/10/01 14:30:44;;;;;;;1.50;1.00;;;;;;;23.36;38.17;95793.31;5058559;28;20507;-84
2021/10/01 14:33:12;;;;;;;15.02;12.80;;;;;;;23.33;38.75;95793.00;5057178;28;20201;-84
2021/10/01 14:35:40;;;;;;;2.83;2.58;;;;;;;23.34;38.71;95800.66;5072562;28;20247;-85
2021/10/01 14:38:08;;;;;;;1.90;1.40;;;;;;;23.33;38.89;95793.00;5068980;28;20225;-84
2021/10/01 14:40:35;;;;;;;1.20;1.10;;;;;;;23.28;40.04;95785.13;5053790;28;20205;-84
2021/10/01 14:43:02;;;;;;;1.23;1.13;;;;;;;23.27;39.45;95786.94;5056182;28;20660;-84
2021/10/01 14:45:28;;;;;;;1.20;1.10;;;;;;;23.23;39.37;95780.59;5074330;28;20573;-85
2021/10/01 14:47:54;;;;;;;1.98;1.00;;;;;;;23.17;39.40;95784.22;5075508;28;20636;-84
2021/10/01 14:50:23;;;;;;;1.35;0.95;;;;;;;23.21;39.61;95784.53;5075482;28;20224;-85
2021/10/01 14:52:50;;;;;;;1.27;1.17;;;;;;;23.18;40.63;95787.66;5072979;28;20197;-84
2021/10/01 14:55:17;;;;;;;1.40;1.30;;;;;;;23.07;39.63;95784.94;5073668;28;20217;-84
2021/10/01 14:57:43;;;;;;;1.45;1.20;;;;;;;23.07;40.03;95781.53;5074411;28;20704;-85
2021/10/01 15:00:12;;;;;;;1.40;1.30;;;;;;;23.03;39.44;95775.19;5065616;28;20573;-86
2021/10/01 15:02:39;;;;;;;1.20;1.10;;;;;;;23.02;39.94;95774.38;5053605;28;20201;-85
2021/10/01 15:05:07;;;;;;;1.48;1.38;;;;;;;23.05;40.25;95773.91;5054134;28;20251;-84
2021/10/01 15:07:35;;;;;;;1.45;1.20;;;;;;;23.04;40.64;95774.16;5067686;28;20223;-84
2021/10/01 15:10:02;;;;;;;1.08;1.08;;;;;;;23.08;40.04;95772.59;5074227;28;20197;-84
2021/10/01 15:12:29;;;;;;;1.30;1.20;;;;;;;23.07;39.95;95771.81;5072020;28;20211;-83
2021/10/01 15:14:55;;;;;;;2.20;1.42;;;;;;;23.00;39.89;95765.97;5072719;28;20193;-84
2021/10/01 15:17:22;;;;;;;2.05;1.40;;;;;;;22.92;39.94;95763.78;5073977;28;20235;-83
2021/10/01 15:19:49;;;;;;;1.30;1.20;;;;;;;22.88;39.76;95757.47;5068840;28;20288;-83
2021/10/01 15:22:16;;;;;;;2.75;1.40;;;;;;;22.90;40.18;95754.59;5072145;28;20197;-84
2021/10/01 15:24:44;;;;;;;1.40;1.30;;;;;;;22.86;40.58;95754.28;5071326;28;20292;-84
2021/10/01 15:27:10;;;;;;;1.30;1.20;;;;;;;22.85;41.31;95757.16;5064091;28;20223;-85
2021/10/01 15:30:13;;;;;;;1.98;1.67;;;;;;;22.91;42.07;95754.31;5054037;28;20198;-84
2021/10/01 15:32:42;;;;;;;1.88;1.77;;;;;;;22.86;41.32;95756.13;5053064;28;20448;-85
2021/10/01 15:35:11;;;;;;;1.42;1.30;;;;;;;22.84;40.83;95747.69;5053730;28;20227;-84
2021/10/01 15:37:37;;;;;;;1.60;1.50;;;;;;;22.84;40.73;95743.25;5053687;28;20275;-85
2021/10/01 15:40:06;;;;;;;2.38;1.90;;;;;;;22.78;40.66;95748.69;5053726;28;20201;-84
2021/10/01 15:42:33;;;;;;;1.83;1.67;;;;;;;22.83;40.72;95749.53;5052702;28;20205;-85
2021/10/01 15:44:59;;;;;;;1.90;1.80;;;;;;;22.81;41.03;95742.94;5052637;28;20197;-84
2021/10/01 15:47:26;;;;;;;1.77;1.67;;;;;;;22.73;41.67;95741.53;5054415;28;20240;-84
2021/10/01 15:49:56;;;;;;;2.78;1.80;;;;;;;22.68;42.49;95744.13;5062368;28;20219;-83
2021/10/01 15:52:22;;;;;;;1.83;1.73;;;;;;;22.59;43.01;95742.97;5073889;28;20342;-84
2021/10/01 15:54:49;;;;;;;3.58;1.77;;;;;;;22.53;44.44;95751.81;5076798;28;20207;-84
2021/10/01 15:57:17;;;;;;;2.00;1.90;;;;;;;22.51;43.99;95749.47;5077359;28;20235;-85
2021/10/01 15:59:44;;;;;;;1.83;1.65;;;;;;;22.42;44.40;95743.06;5076599;28;20201;-85
2021/10/01 16:02:10;;;;;;;2.03;1.83;;;;;;;22.31;44.39;95750.06;5075944;28;20219;-84
2021/10/01 16:04:37;;;;;;;1.67;1.58;;;;;;;22.20;44.30;95750.16;5075264;28;20219;-85
2021/10/01 16:07:04;;;;;;;2.55;1.65;;;;;;;22.08;45.04;95750.31;5076781;28;20745;-84
2021/10/01 16:09:30;;;;;;;4.53;2.30;;;;;;;21.92;46.54;95748.50;5071247;28;20201;-83
2021/10/01 16:11:57;;;;;;;2.67;1.80;;;;;;;21.81;46.59;95747.56;5076782;28;20200;-84
2021/10/01 16:14:25;;;;;;;2.45;1.77;;;;;;;21.68;47.93;95748.72;5076280;28;20209;-85
2021/10/01 16:16:52;;;;;;;3.00;1.88;;;;;;;21.46;48.91;95745.25;5076333;28;20290;-85
2021/10/01 16:19:18;;;;;;;3.63;1.52;;;;;;;21.21;49.05;95744.88;5077205;28;20199;-84
2021/10/01 16:21:48;;;;;;;2.28;1.70;;;;;;;21.03;49.84;95748.50;5077430;28;20640;-84
2021/10/01 16:24:14;;;;;;;1.42;1.33;;;;;;;20.92;50.79;95758.03;5076418;28;20232;-84
2021/10/01 16:26:41;;;;;;;1.55;1.45;;;;;;;20.83;51.26;95756.03;5071333;28;20224;-84
2021/10/01 16:29:08;;;;;;;2.05;1.70;;;;;;;20.72;51.52;95760.28;5069339;28;20197;-85
2021/10/01 16:31:37;;;;;;;2.40;1.60;;;;;;;20.55;52.45;95757.66;5057495;28;20288;-83
2021/10/01 16:34:07;;;;;;;1.85;1.65;;;;;;;20.49;53.21;95755.16;5056325;28;20324;-84
2021/10/01 16:36:33;;;;;;;2.22;2.03;;;;;;;20.36;53.39;95758.84;5056443;28;20240;-85
2021/10/01 16:39:01;;;;;;;2.20;2.00;;;;;;;20.27;53.00;95763.63;5057070;28;20225;-84
2021/10/01 16:41:28;;;;;;;2.28;2.10;;;;;;;20.18;53.58;95754.59;5058160;28;20201;-83
2021/10/01 16:43:55;;;;;;;2.45;2.25;;;;;;;20.07;53.96;95758.00;5055420;28;20205;-83
2021/10/01 16:46:22;;;;;;;2.65;2.15;;;;;;;19.99;53.79;95751.34;5055871;28;20228;-85
2021/10/01 16:48:51;;;;;;;3.10;2.03;;;;;;;19.91;54.28;95754.28;5056962;28;20810;-84
2021/10/01 16:51:17;;;;;;;2.15;1.92;;;;;;;19.83;54.87;95746.00;5057357;28;20204;-83
2021/10/01 16:53:44;;;;;;;3.05;2.40;;;;;;;19.70;54.74;95744.44;5057502;28;20259;-85
2021/10/01 16:56:12;;;;;;;7.60;2.60;;;;;;;19.66;54.13;95744.09;5056857;28;20221;-84
2021/10/01 16:58:39;;;;;;;2.47;1.75;;;;;;;19.59;54.00;95746.06;5073663;28;20217;-84
2021/10/01 17:01:05;;;;;;;2.38;1.95;;;;;;;19.58;54.17;95754.13;5076984;28;20687;-85
2021/10/01 17:03:32;;;;;;;2.50;2.08;;;;;;;19.54;54.08;95745.94;5076189;28;20208;-83
2021/10/01 17:06:01;;;;;;;5.00;2.30;;;;;;;19.49;54.11;95747.59;5075612;28;20249;-84
2021/10/01 17:08:28;;;;;;;2.17;1.80;;;;;;;19.46;54.65;95742.84;5076674;28;20204;-84
2021/10/01 17:10:54;;;;;;;2.33;2.13;;;;;;;19.41;54.84;95753.19;5075926;28;20207;-86
2021/10/01 17:13:21;;;;;;;2.15;1.90;;;;;;;19.38;55.00;95756.25;5076343;28;20606;-85
2021/10/01 17:15:47;;;;;;;2.78;2.08;;;;;;;19.33;55.54;95746.47;5076045;28;20227;-84
2021/10/01 17:18:14;;;;;;;2.00;1.80;;;;;;;19.26;56.60;95748.41;5076568;28;20226;-83
2021/10/01 17:20:40;;;;;;;2.92;1.90;;;;;;;19.19;56.89;95753.75;5075634;28;20590;-84
2021/10/01 17:23:11;;;;;;;2.92;2.42;;;;;;;19.17;57.15;95753.16;5074205;28;20204;-84
2021/10/01 17:25:38;;;;;;;2.33;2.08;;;;;;;19.14;57.24;95745.78;5076211;28;20307;-86
2021/10/01 17:28:05;;;;;;;4.07;2.10;;;;;;;19.11;57.58;95748.84;5060285;28;20209;-85
2021/10/01 17:30:32;;;;;;;2.10;1.90;;;;;;;19.13;57.19;95753.84;5058097;28;20213;-83
2021/10/01 17:33:00;;;;;;;2.88;1.92;;;;;;;19.13;57.32;95751.22;5057233;28;20201;-83
2021/10/01 17:35:27;;;;;;;2.58;1.90;;;;;;;19.14;57.43;95751.00;5056230;28;20221;-85
2021/10/01 17:37:53;;;;;;;2.40;2.20;;;;;;;19.10;58.41;95747.25;5057071;28;20233;-84
2021/10/01 17:40:22;;;;;;;5.18;2.10;;;;;;;19.02;58.77;95752.03;5057702;28;20201;-84
2021/10/01 17:42:48;;;;;;;2.45;2.25;;;;;;;18.96;59.39;95743.28;5056907;28;20213;-85
2021/10/01 17:45:15;;;;;;;6.50;2.53;;;;;;;18.90;59.33;95752.78;5075837;28;20193;-84
2021/10/01 17:47:41;;;;;;;2.30;2.10;;;;;;;18.82;60.01;95755.72;5076103;28;20262;-85
2021/10/01 17:50:09;;;;;;;3.10;2.33;;;;;;;18.82;60.48;95755.72;5075761;28;20645;-84
2021/10/01 17:52:39;;;;;;;2.50;2.30;;;;;;;18.81;60.88;95756.75;5075606;28;20223;-84
2021/10/01 17:55:07;;;;;;;4.43;2.00;;;;;;;18.83;61.12;95757.31;5074491;28;20291;-84
2021/10/01 17:57:35;;;;;;;2.47;2.28;;;;;;;18.75;61.43;95752.41;5076286;28;20227;-83
2021/10/01 18:00:02;;;;;;;5.35;2.50;;;;;;;18.71;61.78;95753.06;5075381;28;20197;-84
2021/10/01 18:02:28;;;;;;;3.97;2.22;;;;;;;18.68;61.58;95753.50;5074835;28;20193;-83
2021/10/01 18:04:55;;;;;;;3.35;2.50;;;;;;;18.63;62.33;95747.19;5075144;28;20203;-84
2021/10/01 18:07:21;;;;;;;2.85;2.30;;;;;;;18.61;62.43;95748.41;5076217;28;20719;-84
2021/10/01 18:09:48;;;;;;;3.63;2.40;;;;;;;18.60;62.07;95745.00;5074936;28;20188;-85
2021/10/01 18:12:15;;;;;;;4.38;2.63;;;;;;;18.57;62.68;95744.63;5074811;28;20213;-85
2021/10/01 18:14:47;;;;;;;3.08;2.35;;;;;;;18.59;63.37;95747.84;5074967;28;20238;-84
2021/10/01 18:17:13;;;;;;;2.50;2.30;;;;;;;18.51;63.70;95743.69;5075771;28;20220;-84
2021/10/01 18:19:43;;;;;;;2.88;2.20;;;;;;;18.53;63.10;95749.47;5074547;28;20192;-85
2021/10/01 18:22:12;;;;;;;4.07;2.42;;;;;;;18.40;63.95;95748.88;5075382;28;20287;-84
2021/10/01 18:24:39;;;;;;;2.20;2.00;;;;;;;18.37;63.97;95747.50;5074636;28;20203;-84
2021/10/01 18:27:09;;;;;;;4.22;2.53;;;;;;;18.35;64.12;95741.69;5075223;28;20228;-83
2021/10/01 18:29:36;;;;;;;3.35;2.60;;;;;;;18.30;64.79;95744.16;5073106;28;20618;-83
2021/10/01 18:32:04;;;;;;;3.20;2.30;;;;;;;18.26;64.31;95748.25;5073930;28;20205;-83
2021/10/01 18:34:31;;;;;;;2.95;2.47;;;;;;;18.10;65.39;95747.03;5073089;28;20204;-84
2021/10/01 18:37:00;;;;;;;3.83;2.50;;;;;;;18.04;65.77;95740.09;5071879;28;20285;-83
2021/10/01 18:39:27;;;;;;;2.88;2.28;;;;;;;17.99;65.73;95741.75;5073000;28;20201;-84
2021/10/01 18:41:57;;;;;;;2.60;2.15;;;;;;;17.94;66.08;95742.41;5073616;28;20223;-83
2021/10/01 18:44:24;;;;;;;2.35;2.05;;;;;;;17.98;65.71;95750.59;5072829;28;20232;-83
2021/10/01 18:46:50;;;;;;;3.30;2.53;;;;;;;17.95;65.49;95739.59;5073123;28;20220;-84
2021/10/01 18:49:19;;;;;;;3.67;2.45;;;;;;;17.93;66.05;95748.63;5073066;28;20255;-83